createdAt,value
2019-03-31T00:01:08.642Z,68.37
2019-03-31T00:03:37.446Z,67.80
2019-03-31T00:06:06.244Z,79.53
2019-03-31T00:08:34.932Z,76.60
2019-03-31T00:11:03.621Z,77.90
2019-03-31T00:13:32.168Z,73.30
2019-03-31T00:16:00.959Z,72.07
2019-03-31T00:18:29.549Z,68.90
2019-03-31T00:20:58.043Z,64.53
2019-03-31T00:23:26.582Z,66.50
2019-03-31T00:25:55.114Z,75.97
2019-03-31T00:28:23.751Z,65.87
2019-03-31T00:30:59.441Z,66.33
2019-03-31T00:33:32.049Z,66.07
2019-03-31T00:36:01.663Z,71.07
2019-03-31T00:38:33.469Z,68.57
2019-03-31T00:41:02.359Z,65.37
2019-03-31T00:43:31.146Z,68.20
2019-03-31T00:45:59.935Z,66.37
2019-03-31T00:48:28.608Z,72.83
2019-03-31T00:50:57.302Z,66.53
2019-03-31T00:53:25.768Z,66.93
2019-03-31T00:55:54.364Z,62.53
2019-03-31T00:58:23.142Z,67.87
2019-03-31T01:00:53.477Z,66.13
2019-03-31T01:03:22.267Z,72.10
2019-03-31T01:05:50.748Z,65.60
2019-03-31T01:08:19.431Z,74.80
2019-03-31T01:10:48.124Z,71.13
2019-03-31T01:13:18.128Z,73.70
2019-03-31T01:15:47.022Z,72.03
2019-03-31T01:18:15.903Z,72.40
2019-03-31T01:20:45.255Z,76.60
2019-03-31T01:23:14.107Z,79.03
2019-03-31T01:25:42.895Z,80.00
2019-03-31T01:28:11.694Z,80.10
2019-03-31T01:30:40.453Z,86.37
2019-03-31T01:33:09.034Z,81.30
2019-03-31T01:35:37.619Z,89.30
2019-03-31T01:38:06.403Z,84.57
2019-03-31T01:40:34.985Z,80.80
2019-03-31T01:43:03.568Z,87.00
2019-03-31T01:45:32.460Z,87.30
2019-03-31T01:48:01.247Z,91.27
2019-03-31T01:50:30.133Z,90.90
2019-03-31T01:52:58.841Z,86.97
2019-03-31T01:55:27.401Z,87.17
2019-03-31T01:57:56.187Z,87.90
2019-03-31T02:00:26.407Z,87.63
2019-03-31T02:02:55.296Z,92.90
2019-03-31T02:05:23.883Z,87.07
2019-03-31T02:07:52.461Z,91.13
2019-03-31T02:10:21.355Z,97.37
2019-03-31T02:12:50.039Z,92.20
2019-03-31T02:15:18.931Z,99.43
2019-03-31T02:17:47.711Z,101.93
2019-03-31T02:20:16.194Z,97.60
2019-03-31T02:22:44.877Z,103.13
2019-03-31T02:25:13.560Z,103.07
2019-03-31T02:27:42.141Z,104.43
2019-03-31T02:30:14.450Z,111.73
2019-03-31T02:32:43.727Z,103.80
2019-03-31T02:35:12.531Z,107.60
2019-03-31T02:37:41.436Z,114.40
2019-03-31T02:40:14.456Z,108.30
2019-03-31T02:42:43.081Z,106.83
2019-03-31T02:45:11.748Z,111.07
2019-03-31T02:47:40.630Z,110.67
2019-03-31T02:50:09.221Z,105.30
2019-03-31T02:52:38.006Z,110.83
2019-03-31T02:55:06.774Z,115.13
2019-03-31T02:57:35.468Z,109.93
2019-03-31T03:00:04.365Z,118.00
2019-03-31T03:02:41.326Z,117.90
2019-03-31T03:05:18.902Z,112.33
2019-03-31T03:07:35.746Z,117.20
2019-03-31T03:10:05.288Z,118.53
2019-03-31T03:12:34.144Z,115.93
2019-03-31T03:15:02.924Z,113.67
2019-03-31T03:17:31.708Z,117.83
2019-03-31T03:20:00.447Z,115.03
2019-03-31T03:22:29.193Z,111.03
2019-03-31T03:24:57.871Z,124.73
2019-03-31T03:27:26.653Z,120.23
2019-03-31T03:29:55.339Z,130.13
2019-03-31T03:32:24.058Z,124.60
2019-03-31T03:34:52.815Z,128.03
2019-03-31T03:37:21.604Z,129.50
2019-03-31T03:39:50.173Z,133.10
2019-03-31T03:42:18.757Z,125.53
2019-03-31T03:44:47.427Z,130.47
2019-03-31T03:47:16.231Z,125.73
2019-03-31T03:49:44.915Z,138.53
2019-03-31T03:52:13.419Z,140.90
2019-03-31T03:54:42.192Z,137.00
2019-03-31T03:57:10.867Z,133.13
2019-03-31T03:59:39.665Z,127.80
2019-03-31T04:02:08.423Z,134.90
2019-03-31T04:04:37.121Z,124.13
2019-03-31T04:07:05.704Z,135.33
2019-03-31T04:09:34.286Z,126.13
2019-03-31T04:12:03.086Z,122.60
2019-03-31T04:14:31.749Z,118.90
2019-03-31T04:17:00.552Z,125.50
2019-03-31T04:19:29.234Z,121.57
2019-03-31T04:21:57.920Z,125.80
2019-03-31T04:24:26.602Z,124.87
2019-03-31T04:26:55.384Z,127.30
2019-03-31T04:29:23.976Z,130.60
2019-03-31T04:31:52.758Z,126.33
2019-03-31T04:34:21.548Z,128.53
2019-03-31T04:36:50.238Z,131.77
2019-03-31T04:39:19.013Z,133.23
2019-03-31T04:41:47.560Z,134.23
2019-03-31T04:44:16.372Z,130.17
2019-03-31T04:46:45.170Z,126.47
2019-03-31T04:49:13.754Z,131.37
2019-03-31T04:51:42.215Z,124.80
2019-03-31T04:54:10.914Z,122.87
2019-03-31T04:56:39.497Z,132.93
2019-03-31T04:59:08.078Z,132.53
2019-03-31T05:01:36.855Z,126.07
2019-03-31T05:04:05.728Z,127.40
2019-03-31T05:06:34.655Z,134.17
2019-03-31T05:09:06.092Z,138.40
2019-03-31T05:11:35.001Z,138.37
2019-03-31T05:14:03.891Z,131.33
2019-03-31T05:16:32.674Z,125.53
2019-03-31T05:19:01.219Z,120.20
2019-03-31T05:21:29.812Z,129.90
2019-03-31T05:23:58.326Z,130.30
2019-03-31T05:26:27.093Z,128.47
2019-03-31T05:28:55.779Z,132.20
2019-03-31T05:31:24.460Z,122.07
2019-03-31T05:33:53.243Z,131.90
2019-03-31T05:36:21.827Z,138.47
2019-03-31T05:38:50.617Z,139.83
2019-03-31T05:41:19.204Z,129.50
2019-03-31T05:43:47.889Z,131.30
2019-03-31T05:46:16.493Z,128.57
2019-03-31T05:48:45.155Z,133.90
2019-03-31T05:51:13.941Z,124.40
2019-03-31T05:53:42.515Z,119.03
2019-03-31T05:56:11.099Z,134.87
2019-03-31T05:58:39.567Z,133.80
2019-03-31T06:01:08.266Z,136.93
2019-03-31T06:03:37.101Z,126.43
2019-03-31T06:06:05.944Z,136.33
2019-03-31T06:08:34.729Z,138.77
2019-03-31T06:11:03.627Z,138.10
2019-03-31T06:13:32.297Z,132.93
2019-03-31T06:16:00.986Z,145.00
2019-03-31T06:18:29.681Z,141.50
2019-03-31T06:20:58.458Z,134.80
2019-03-31T06:23:27.259Z,139.97
2019-03-31T06:25:55.921Z,138.80
2019-03-31T06:28:24.736Z,146.27
2019-03-31T06:30:53.388Z,136.03
2019-03-31T06:33:21.928Z,140.53
2019-03-31T06:35:50.461Z,145.30
2019-03-31T06:38:19.147Z,130.77
2019-03-31T06:40:52.244Z,134.87
2019-03-31T06:43:20.946Z,127.60
2019-03-31T06:45:49.404Z,132.03
2019-03-31T06:48:18.219Z,128.63
2019-03-31T06:50:46.804Z,138.77
2019-03-31T06:53:15.561Z,122.70
2019-03-31T06:55:44.123Z,134.37
2019-03-31T06:58:12.828Z,133.90
2019-03-31T07:00:41.620Z,137.77
2019-03-31T07:03:10.507Z,129.57
2019-03-31T07:05:39.199Z,135.73
2019-03-31T07:08:09.750Z,134.67
2019-03-31T07:10:38.598Z,132.43
2019-03-31T07:13:07.182Z,132.53
2019-03-31T07:15:35.765Z,129.37
2019-03-31T07:18:04.344Z,127.60
2019-03-31T07:20:33.237Z,134.27
2019-03-31T07:23:02.023Z,132.23
2019-03-31T07:25:30.710Z,132.27
2019-03-31T07:27:59.499Z,129.47
2019-03-31T07:30:28.182Z,126.17
2019-03-31T07:32:56.869Z,126.20
2019-03-31T07:35:25.759Z,131.90
2019-03-31T07:37:54.439Z,119.23
2019-03-31T07:40:23.380Z,128.57
2019-03-31T07:42:52.396Z,132.87
2019-03-31T07:45:21.323Z,124.80
2019-03-31T07:47:49.993Z,124.53
2019-03-31T07:50:18.983Z,129.17
2019-03-31T07:52:47.669Z,127.67
2019-03-31T07:55:16.215Z,133.03
2019-03-31T07:57:44.942Z,131.90
2019-03-31T08:00:16.227Z,125.57
2019-03-31T08:02:44.853Z,133.53
2019-03-31T08:05:13.547Z,128.10
2019-03-31T08:07:42.118Z,131.47
2019-03-31T08:10:11.315Z,125.90
2019-03-31T08:12:40.013Z,125.33
2019-03-31T08:15:12.105Z,135.47
2019-03-31T08:17:42.762Z,126.67
2019-03-31T08:20:17.331Z,118.43
2019-03-31T08:22:45.843Z,124.63
2019-03-31T08:25:14.497Z,125.50
2019-03-31T08:27:43.080Z,119.03
2019-03-31T08:30:13.312Z,117.50
2019-03-31T08:32:41.877Z,118.87
2019-03-31T08:35:10.664Z,114.43
2019-03-31T08:37:39.378Z,114.67
2019-03-31T08:40:09.931Z,104.30
2019-03-31T08:42:38.770Z,114.60
2019-03-31T08:45:07.601Z,103.40
2019-03-31T08:47:36.651Z,111.80
2019-03-31T08:50:06.987Z,110.20
2019-03-31T08:52:35.665Z,100.00
2019-03-31T08:55:04.763Z,99.00
2019-03-31T08:57:33.783Z,99.67
2019-03-31T09:00:02.543Z,91.37
2019-03-31T09:02:32.896Z,93.27
2019-03-31T09:05:06.164Z,84.47
2019-03-31T09:07:34.757Z,77.40
2019-03-31T09:10:04.242Z,79.93
2019-03-31T09:12:32.928Z,87.50
2019-03-31T09:15:01.600Z,81.63
2019-03-31T09:17:30.196Z,86.10
2019-03-31T09:19:58.865Z,87.47
2019-03-31T09:22:27.447Z,73.90
2019-03-31T09:24:55.994Z,75.13
2019-03-31T09:27:24.629Z,77.00
2019-03-31T09:29:53.295Z,71.90
2019-03-31T09:32:21.980Z,65.70
2019-03-31T09:34:50.769Z,77.53
2019-03-31T09:37:19.339Z,67.30
2019-03-31T09:39:47.931Z,72.43
2019-03-31T09:42:16.616Z,75.43
2019-03-31T09:44:45.513Z,67.33
2019-03-31T09:47:14.293Z,70.37
2019-03-31T09:49:42.982Z,67.33
2019-03-31T09:52:11.661Z,69.53
2019-03-31T09:54:41.269Z,65.63
2019-03-31T09:57:10.054Z,64.67
2019-03-31T09:59:38.669Z,64.87
2019-03-31T10:02:07.423Z,69.37
2019-03-31T10:04:36.219Z,68.23
2019-03-31T10:07:05.013Z,67.50
2019-03-31T10:09:33.887Z,61.20
2019-03-31T10:12:02.884Z,71.47
2019-03-31T10:14:31.884Z,70.30
2019-03-31T10:17:00.563Z,67.50
2019-03-31T10:19:29.357Z,68.07
2019-03-31T10:21:57.930Z,64.20
2019-03-31T10:24:26.717Z,68.97
2019-03-31T10:26:55.399Z,72.57
2019-03-31T10:29:24.088Z,62.50
2019-03-31T10:31:52.869Z,65.43
2019-03-31T10:34:21.667Z,61.37
2019-03-31T10:36:50.447Z,61.47
2019-03-31T10:39:19.239Z,67.23
2019-03-31T10:41:48.022Z,70.23
2019-03-31T10:44:16.808Z,67.83
2019-03-31T10:46:45.704Z,61.60
2019-03-31T10:49:14.483Z,59.10
2019-03-31T10:51:43.156Z,61.10
2019-03-31T10:54:11.855Z,57.83
2019-03-31T10:56:40.574Z,62.77
2019-03-31T10:59:09.317Z,68.60
2019-03-31T11:01:38.002Z,59.80
2019-03-31T11:04:06.586Z,72.43
2019-03-31T11:06:35.270Z,63.43
2019-03-31T11:09:05.902Z,65.83
2019-03-31T11:11:34.481Z,62.40
2019-03-31T11:14:03.160Z,60.93
2019-03-31T11:16:31.749Z,54.47
2019-03-31T11:19:00.432Z,51.20
2019-03-31T11:21:30.748Z,65.63
2019-03-31T11:23:59.442Z,58.30
2019-03-31T11:26:28.231Z,55.37
2019-03-31T11:28:57.171Z,56.00
2019-03-31T11:31:25.975Z,61.23
2019-03-31T11:33:54.794Z,58.67
2019-03-31T11:36:23.580Z,61.97
2019-03-31T11:38:52.367Z,57.87
2019-03-31T11:41:21.259Z,52.33
2019-03-31T11:43:49.942Z,50.73
2019-03-31T11:46:18.733Z,56.53
2019-03-31T11:48:47.521Z,52.93
2019-03-31T11:51:16.097Z,47.30
2019-03-31T11:53:46.445Z,54.93
2019-03-31T11:56:22.485Z,50.63
2019-03-31T11:58:51.367Z,53.70
2019-03-31T12:01:20.268Z,48.00
2019-03-31T12:03:49.056Z,49.33
2019-03-31T12:06:17.727Z,50.97
2019-03-31T12:08:46.616Z,51.50
2019-03-31T12:11:15.306Z,48.67
2019-03-31T12:13:43.972Z,47.53
2019-03-31T12:16:12.673Z,49.40
2019-03-31T12:18:41.460Z,47.77
2019-03-31T12:21:10.025Z,45.87
2019-03-31T12:23:38.626Z,48.73
2019-03-31T12:26:07.397Z,47.83
2019-03-31T12:28:36.093Z,43.73
2019-03-31T12:31:04.768Z,51.67
2019-03-31T12:33:33.366Z,51.57
2019-03-31T12:36:02.048Z,47.47
2019-03-31T12:38:30.728Z,43.93
2019-03-31T12:40:59.199Z,44.47
2019-03-31T12:43:27.795Z,42.13
2019-03-31T12:45:56.681Z,41.73
2019-03-31T12:48:25.368Z,43.07
2019-03-31T12:50:54.052Z,45.60
2019-03-31T12:53:22.838Z,47.63
2019-03-31T12:56:00.067Z,35.37
2019-03-31T12:58:21.950Z,36.40
2019-03-31T13:00:51.969Z,47.10
2019-03-31T13:03:20.547Z,36.70
2019-03-31T13:05:49.124Z,39.63
2019-03-31T13:08:17.716Z,40.23
2019-03-31T13:10:46.712Z,37.80
2019-03-31T13:13:15.383Z,40.50
2019-03-31T13:15:44.069Z,37.03
2019-03-31T13:18:12.757Z,33.73
2019-03-31T13:20:41.551Z,34.03
2019-03-31T13:23:10.331Z,35.30
2019-03-31T13:25:39.127Z,36.37
2019-03-31T13:28:07.810Z,39.00
2019-03-31T13:30:36.500Z,36.57
2019-03-31T13:33:05.271Z,38.00
2019-03-31T13:35:33.768Z,37.03
2019-03-31T13:38:10.915Z,37.70
2019-03-31T13:40:33.374Z,34.67
2019-03-31T13:43:01.944Z,35.53
2019-03-31T13:45:32.175Z,35.43
2019-03-31T13:48:00.963Z,37.03
2019-03-31T13:50:29.636Z,31.33
2019-03-31T13:52:58.227Z,35.63
2019-03-31T13:55:27.021Z,29.90
2019-03-31T13:57:58.085Z,34.70
2019-03-31T14:00:39.459Z,31.00
2019-03-31T14:03:08.367Z,46.00
2019-03-31T14:05:37.227Z,34.97
2019-03-31T14:08:06.115Z,27.13
2019-03-31T14:10:35.003Z,32.20
2019-03-31T14:13:04.306Z,33.17
2019-03-31T14:15:32.990Z,28.23
2019-03-31T14:18:01.675Z,26.47
2019-03-31T14:20:30.364Z,32.10
2019-03-31T14:22:59.038Z,32.77
2019-03-31T14:25:28.030Z,32.90
2019-03-31T14:27:56.919Z,27.77
2019-03-31T14:30:25.601Z,27.00
2019-03-31T14:32:54.406Z,28.47
2019-03-31T14:35:23.179Z,28.73
2019-03-31T14:37:51.747Z,34.43
2019-03-31T14:40:20.286Z,29.63
2019-03-31T14:42:48.920Z,26.73
2019-03-31T14:45:34.139Z,29.17
2019-03-31T14:48:02.783Z,26.17
2019-03-31T14:50:35.765Z,32.43
2019-03-31T14:53:04.866Z,30.33
2019-03-31T14:55:33.652Z,28.83
2019-03-31T14:58:02.333Z,29.23
2019-03-31T15:00:31.316Z,32.57
2019-03-31T15:03:00.208Z,32.53
2019-03-31T15:05:28.890Z,33.10
2019-03-31T15:07:58.628Z,41.00
2019-03-31T15:10:27.590Z,30.83
2019-03-31T15:12:56.274Z,34.53
2019-03-31T15:15:24.960Z,34.77
2019-03-31T15:17:53.850Z,32.00
2019-03-31T15:20:22.635Z,32.17
2019-03-31T15:22:51.523Z,32.90
2019-03-31T15:25:20.517Z,29.00
2019-03-31T15:27:49.307Z,34.37
2019-03-31T15:30:18.003Z,31.20
2019-03-31T15:32:46.678Z,33.13
2019-03-31T15:35:15.465Z,35.53
2019-03-31T15:37:44.246Z,36.30
2019-03-31T15:40:12.828Z,38.27
2019-03-31T15:42:41.616Z,35.10
2019-03-31T15:45:10.431Z,39.97
2019-03-31T15:47:39.104Z,33.63
2019-03-31T15:50:07.669Z,31.17
2019-03-31T15:52:36.344Z,31.97
2019-03-31T15:55:07.997Z,33.73
2019-03-31T15:57:36.744Z,33.80
2019-03-31T16:00:08.668Z,27.60
2019-03-31T16:02:37.335Z,29.93
2019-03-31T16:05:12.438Z,31.73
2019-03-31T16:07:39.527Z,30.80
2019-03-31T16:10:08.096Z,30.03
2019-03-31T16:12:36.902Z,28.20
2019-03-31T16:15:06.101Z,28.27
2019-03-31T16:17:34.914Z,30.53
2019-03-31T16:20:04.080Z,27.93
2019-03-31T16:22:32.976Z,27.90
2019-03-31T16:25:03.491Z,40.30
2019-03-31T16:27:32.080Z,25.17
2019-03-31T16:30:00.771Z,31.80
2019-03-31T16:32:29.356Z,23.90
2019-03-31T16:34:58.124Z,25.30
2019-03-31T16:37:26.812Z,26.67
2019-03-31T16:39:55.376Z,24.80
2019-03-31T16:42:24.183Z,23.80
2019-03-31T16:44:58.407Z,22.07
2019-03-31T16:47:22.966Z,20.10
2019-03-31T16:49:51.683Z,29.63
2019-03-31T16:52:20.451Z,22.80
2019-03-31T16:54:49.136Z,18.27
2019-03-31T16:57:17.822Z,26.80
2019-03-31T16:59:46.405Z,19.87
2019-03-31T17:02:14.888Z,28.70
2019-03-31T17:04:43.572Z,24.33
2019-03-31T17:07:12.271Z,24.13
2019-03-31T17:09:50.925Z,25.00
2019-03-31T17:12:11.258Z,21.43
2019-03-31T17:14:40.151Z,22.50
2019-03-31T17:17:08.835Z,19.17
2019-03-31T17:19:37.722Z,22.87
2019-03-31T17:22:06.404Z,19.70
2019-03-31T17:24:35.287Z,22.20
2019-03-31T17:27:03.980Z,19.00
2019-03-31T17:29:32.524Z,23.63
2019-03-31T17:32:01.145Z,21.33
2019-03-31T17:34:29.935Z,19.10
2019-03-31T17:36:58.617Z,23.17
2019-03-31T17:39:27.305Z,26.83
2019-03-31T17:41:55.971Z,17.90
2019-03-31T17:44:24.672Z,20.80
2019-03-31T17:46:53.251Z,23.83
2019-03-31T17:49:21.936Z,19.43
2019-03-31T17:51:50.620Z,19.20
2019-03-31T17:54:19.509Z,20.67
2019-03-31T17:56:48.091Z,21.07
2019-03-31T17:59:16.673Z,25.23
2019-03-31T18:01:45.272Z,21.40
2019-03-31T18:04:13.787Z,18.33
2019-03-31T18:06:42.529Z,22.10
2019-03-31T18:09:11.212Z,22.87
2019-03-31T18:11:39.760Z,16.67
2019-03-31T18:14:10.118Z,14.97
2019-03-31T18:16:38.679Z,14.27
2019-03-31T18:19:07.473Z,18.00
2019-03-31T18:21:36.185Z,18.17
2019-03-31T18:24:04.768Z,16.63
2019-03-31T18:26:33.432Z,18.30
2019-03-31T18:29:02.017Z,15.50
2019-03-31T18:31:30.600Z,14.53
2019-03-31T18:33:59.285Z,11.20
2019-03-31T18:36:36.380Z,14.93
2019-03-31T18:38:58.190Z,17.80
2019-03-31T18:41:26.978Z,21.83
2019-03-31T18:43:55.684Z,16.83
2019-03-31T18:46:24.392Z,16.03
2019-03-31T18:48:53.135Z,21.80
2019-03-31T18:51:22.038Z,19.37
2019-03-31T18:53:52.373Z,15.00
2019-03-31T18:56:31.142Z,22.17
2019-03-31T18:59:10.608Z,20.33
2019-03-31T19:01:49.951Z,17.53
2019-03-31T19:04:29.181Z,18.07
2019-03-31T19:07:02.429Z,14.83
2019-03-31T19:09:38.723Z,11.87
2019-03-31T19:12:20.909Z,13.27
2019-03-31T19:15:09.168Z,13.73
2019-03-31T19:17:54.814Z,17.77
2019-03-31T19:20:41.356Z,27.53
2019-03-31T19:23:28.066Z,20.30
2019-03-31T19:26:14.561Z,24.40
2019-03-31T19:28:50.516Z,17.37
2019-03-31T19:31:20.848Z,19.27
2019-03-31T19:33:57.003Z,13.43
2019-03-31T19:36:29.783Z,12.57
2019-03-31T19:39:02.874Z,13.63
2019-03-31T19:41:42.381Z,14.53
2019-03-31T19:44:19.696Z,18.73
2019-03-31T19:46:53.392Z,17.73
2019-03-31T19:49:24.361Z,18.47
2019-03-31T19:52:12.921Z,14.77
2019-03-31T19:54:49.146Z,14.37
2019-03-31T19:57:31.675Z,17.80
2019-03-31T20:00:12.219Z,13.50
2019-03-31T20:02:45.400Z,14.23
2019-03-31T20:05:21.669Z,13.70
2019-03-31T20:08:08.374Z,15.40
2019-03-31T20:10:41.160Z,17.60
2019-03-31T20:13:27.658Z,13.97
2019-03-31T20:16:02.644Z,15.20
2019-03-31T20:18:35.066Z,13.57
2019-03-31T20:21:30.982Z,14.20
2019-03-31T20:24:04.468Z,13.20
2019-03-31T20:26:43.716Z,15.70
2019-03-31T20:29:23.155Z,14.53
2019-03-31T20:31:56.358Z,16.77
2019-03-31T20:34:26.664Z,10.47
2019-03-31T20:37:07.439Z,11.00
2019-03-31T20:39:37.530Z,16.83
2019-03-31T20:42:10.549Z,14.30
2019-03-31T20:44:39.224Z,20.47
2019-03-31T20:47:07.906Z,26.83
2019-03-31T20:49:36.590Z,15.50
2019-03-31T20:52:05.176Z,19.17
2019-03-31T20:54:33.862Z,14.23
2019-03-31T20:57:02.951Z,13.03
2019-03-31T20:59:31.607Z,14.93
2019-03-31T21:02:00.371Z,13.97
2019-03-31T21:04:28.910Z,23.00
2019-03-31T21:06:57.475Z,15.57
2019-03-31T21:09:26.075Z,17.67
2019-03-31T21:11:54.697Z,18.30
2019-03-31T21:14:23.234Z,21.07
2019-03-31T21:16:51.919Z,20.60
2019-03-31T21:19:20.807Z,18.77
2019-03-31T21:21:49.996Z,16.03
2019-03-31T21:24:18.690Z,15.77
2019-03-31T21:26:47.478Z,16.90
2019-03-31T21:29:16.161Z,16.17
2019-03-31T21:31:44.698Z,15.57
2019-03-31T21:34:13.528Z,14.07
2019-03-31T21:36:42.312Z,14.90
2019-03-31T21:39:10.887Z,15.70
2019-03-31T21:41:39.482Z,18.03
2019-03-31T21:44:08.137Z,19.37
2019-03-31T21:46:36.750Z,15.50
2019-03-31T21:49:05.324Z,15.13
2019-03-31T21:51:35.225Z,12.40
2019-03-31T21:54:03.924Z,17.80
2019-03-31T21:56:32.607Z,11.97
2019-03-31T21:59:01.176Z,18.60
2019-03-31T22:01:30.081Z,14.67
2019-03-31T22:03:58.756Z,18.63
2019-03-31T22:06:27.304Z,16.43
2019-03-31T22:08:55.937Z,19.70
2019-03-31T22:11:24.616Z,15.03
2019-03-31T22:13:53.302Z,14.60
2019-03-31T22:16:21.883Z,17.63
2019-03-31T22:18:50.676Z,14.27
2019-03-31T22:21:19.374Z,19.83
2019-03-31T22:23:57.755Z,18.97
2019-03-31T22:26:19.814Z,16.77
2019-03-31T22:28:48.591Z,17.63
2019-03-31T22:31:17.474Z,14.53
2019-03-31T22:33:45.955Z,12.20
2019-03-31T22:36:24.473Z,33.53
2019-03-31T22:38:53.553Z,17.30
2019-03-31T22:41:22.154Z,23.53
2019-03-31T22:43:50.929Z,11.47
2019-03-31T22:46:19.716Z,15.73
2019-03-31T22:48:48.295Z,23.33
2019-03-31T22:51:16.812Z,14.80
2019-03-31T22:53:45.462Z,10.50
2019-03-31T22:56:14.052Z,21.07
2019-03-31T22:58:42.625Z,17.97
2019-03-31T23:01:11.311Z,18.13
2019-03-31T23:03:40.104Z,12.10
2019-03-31T23:06:08.684Z,15.70
2019-03-31T23:08:37.145Z,15.40
2019-03-31T23:11:05.875Z,13.17
2019-03-31T23:13:34.430Z,17.53
2019-03-31T23:16:03.096Z,14.77
2019-03-31T23:18:33.437Z,18.07
2019-03-31T23:21:02.128Z,17.87
2019-03-31T23:23:30.811Z,20.03
2019-03-31T23:25:59.432Z,16.23
2019-03-31T23:28:27.967Z,13.70
2019-03-31T23:30:56.546Z,14.03
2019-03-31T23:33:25.939Z,11.90
2019-03-31T23:35:54.837Z,16.80
2019-03-31T23:38:23.420Z,20.43
2019-03-31T23:40:52.208Z,13.30
2019-03-31T23:43:20.951Z,24.20
2019-03-31T23:45:49.579Z,16.73
2019-03-31T23:48:18.260Z,16.17
2019-03-31T23:50:46.843Z,13.63
2019-03-31T23:53:15.527Z,14.10
2019-03-31T23:55:44.008Z,15.40
2019-03-31T23:58:12.694Z,17.90
